VGSY/ZYL METAR and TAF weather

Enter ICAO airport designator
Station Type Date Time Source
VGSY METAR UTC NOAA

Error!


Station Type Date Time Source
VGSY Decoded METAR UTC NOAA

Error!

Station Type Date Time Source
VGSY TAF 2011/08/08 06:00 UTC NOAA

TAF VGSY 080400Z 0806/0912 06005KT 5000 SCT012 BKN100
BECMG 0900/0902 09005KT 3500HZ SCT015 BKN100
TEMPO. 0806/0912 21020G30KT 2000 RA/TSRA BKN007 FEW025CB OVC080.


Example: see airport list